Time;durP1;ratioP1;P1;durP2;ratioP2;P2;SDS_P1;SDS_P2;PMS_P1;PMS_P2;Temp;Humidity;BMP_temperature;BMP_pressure;BME280_temperature;BME280_humidity;BME280_pressure;Samples;Min_cycle;Max_cycle;Signal;HPM_P1;HPM_P2
2021/03/06 00:00:15;;;;;;;11.55;3.58;;;-1.80;92.40;;;;;;5105460;28;20064;-77
2021/03/06 00:02:41;;;;;;;9.23;5.07;;;-1.80;92.40;;;;;;5100360;28;20047;-77
2021/03/06 00:05:08;;;;;;;9.95;3.88;;;-1.80;92.40;;;;;;5104538;28;20043;-77
2021/03/06 00:07:35;;;;;;;12.30;5.15;;;-1.80;92.80;;;;;;5100447;28;20115;-77
2021/03/06 00:10:02;;;;;;;13.48;4.05;;;-1.80;92.90;;;;;;5101761;28;20071;-77
2021/03/06 00:12:28;;;;;;;11.98;4.05;;;-1.80;93.00;;;;;;5106747;28;20027;-78
2021/03/06 00:14:54;;;;;;;15.75;4.75;;;-1.80;92.70;;;;;;5109970;28;20388;-78
2021/03/06 00:17:19;;;;;;;10.98;4.50;;;-1.80;92.60;;;;;;5099070;28;20224;-77
2021/03/06 00:19:45;;;;;;;10.10;5.07;;;-1.80;92.50;;;;;;5108485;28;20055;-78
2021/03/06 00:22:12;;;;;;;10.00;4.43;;;-1.90;92.50;;;;;;5106169;28;20043;-78
2021/03/06 00:24:38;;;;;;;16.63;5.88;;;-1.90;92.50;;;;;;5108326;28;20440;-78
2021/03/06 00:27:04;;;;;;;12.50;5.65;;;-1.90;92.60;;;;;;5095369;28;20042;-77
2021/03/06 00:29:29;;;;;;;11.52;6.07;;;-1.90;92.60;;;;;;5097813;28;20043;-77
2021/03/06 00:31:55;;;;;;;14.65;6.40;;;-1.90;92.60;;;;;;5103031;28;20032;-77
2021/03/06 00:34:21;;;;;;;9.57;5.63;;;-1.80;92.70;;;;;;5101045;28;20028;-77
2021/03/06 00:36:47;;;;;;;13.82;8.98;;;-2.00;92.70;;;;;;5105142;28;20458;-77
2021/03/06 00:39:13;;;;;;;16.70;7.57;;;-2.00;92.70;;;;;;5096824;28;20067;-77
2021/03/06 00:41:39;;;;;;;18.67;8.00;;;-2.00;92.70;;;;;;5106500;28;20041;-77
2021/03/06 00:44:05;;;;;;;18.98;7.35;;;-2.00;92.70;;;;;;5105427;28;20371;-77
2021/03/06 00:46:30;;;;;;;16.63;7.28;;;-2.10;92.70;;;;;;5102876;28;20115;-78
2021/03/06 00:48:56;;;;;;;15.82;7.85;;;-2.10;92.70;;;;;;5098408;28;20093;-77
2021/03/06 00:51:22;;;;;;;14.52;7.63;;;-2.10;92.70;;;;;;5103474;28;20132;-77
2021/03/06 00:53:49;;;;;;;14.48;7.97;;;-2.10;92.70;;;;;;5097159;28;20038;-77
2021/03/06 00:56:14;;;;;;;17.63;8.05;;;-2.20;92.70;;;;;;5107913;28;20039;-77
2021/03/06 00:58:40;;;;;;;15.95;7.30;;;-2.20;92.80;;;;;;5101453;28;20510;-77
2021/03/06 01:01:08;;;;;;;18.05;7.40;;;-2.20;92.80;;;;;;5098428;28;20040;-77
2021/03/06 01:03:34;;;;;;;18.48;8.13;;;-2.20;92.90;;;;;;5105090;28;20107;-77
2021/03/06 01:06:00;;;;;;;20.67;8.48;;;-2.20;93.20;;;;;;5110202;28;20123;-78
2021/03/06 01:08:26;;;;;;;18.13;8.25;;;-2.10;93.20;;;;;;5103622;28;20370;-77
2021/03/06 01:10:52;;;;;;;20.27;8.52;;;-2.10;93.70;;;;;;5110196;28;20044;-77
2021/03/06 01:13:19;;;;;;;17.90;8.52;;;-2.00;93.60;;;;;;5098478;28;20032;-77
2021/03/06 01:15:45;;;;;;;15.25;7.03;;;-1.90;93.70;;;;;;5096541;28;20027;-77
2021/03/06 01:18:11;;;;;;;15.98;8.23;;;-1.80;93.80;;;;;;5101289;28;20581;-77
2021/03/06 01:20:37;;;;;;;15.65;7.13;;;-1.80;93.70;;;;;;5093862;27;20128;-77
2021/03/06 01:23:04;;;;;;;16.23;7.95;;;-1.80;93.70;;;;;;5108818;28;20524;-77
2021/03/06 01:25:30;;;;;;;15.02;7.57;;;-1.70;93.90;;;;;;5102980;28;20039;-77
2021/03/06 01:27:56;;;;;;;17.25;8.43;;;-1.70;93.90;;;;;;5106346;28;20035;-77
2021/03/06 01:30:24;;;;;;;20.58;9.02;;;-1.60;94.10;;;;;;5102649;28;20043;-77
2021/03/06 01:32:51;;;;;;;15.80;8.02;;;-1.60;94.00;;;;;;5108936;28;20465;-77
2021/03/06 01:35:21;;;;;;;22.58;7.72;;;-1.60;93.90;;;;;;5106755;28;20076;-77
2021/03/06 01:37:47;;;;;;;16.08;7.80;;;-1.60;94.10;;;;;;5111073;28;20047;-77
2021/03/06 01:40:16;;;;;;;16.77;8.55;;;-1.50;94.70;;;;;;5105539;28;20035;-77
2021/03/06 01:42:42;;;;;;;16.52;7.60;;;-1.40;94.50;;;;;;5100403;28;20527;-77
2021/03/06 01:45:09;;;;;;;18.98;8.88;;;-1.40;94.20;;;;;;5110390;27;20035;-77
2021/03/06 01:47:37;;;;;;;16.30;9.20;;;-1.40;94.30;;;;;;5102874;28;20067;-77
2021/03/06 01:50:05;;;;;;;16.83;7.82;;;-1.40;94.40;;;;;;5104752;28;20383;-77
2021/03/06 01:52:31;;;;;;;16.27;8.90;;;-1.30;94.40;;;;;;5106833;28;20040;-77
2021/03/06 01:54:58;;;;;;;18.05;9.32;;;-1.30;94.30;;;;;;5101201;27;20040;-77
2021/03/06 01:57:25;;;;;;;20.95;10.13;;;-1.30;94.20;;;;;;5111011;28;20446;-77
2021/03/06 01:59:51;;;;;;;20.10;9.63;;;-1.30;94.10;;;;;;5104887;28;20032;-77
2021/03/06 02:02:18;;;;;;;23.40;11.40;;;-1.40;94.30;;;;;;5106399;28;20055;-77
2021/03/06 02:04:44;;;;;;;19.02;10.40;;;-1.30;94.40;;;;;;5109762;28;20031;-77
2021/03/06 02:07:10;;;;;;;16.65;9.32;;;-1.30;94.40;;;;;;5107131;28;20055;-76
2021/03/06 02:09:35;;;;;;;25.00;11.15;;;-1.30;94.20;;;;;;5110682;27;20129;-77
2021/03/06 02:12:04;;;;;;;22.35;10.93;;;-1.20;94.20;;;;;;5110622;27;20466;-77
2021/03/06 02:14:51;;;;;;;18.95;9.70;;;-1.20;94.60;;;;;;5102462;28;20043;-77
2021/03/06 02:17:40;;;;;;;20.27;9.77;;;-1.10;94.50;;;;;;5099168;28;20066;-77
2021/03/06 02:20:40;;;;;;;22.75;9.52;;;-1.10;94.40;;;;;;5102734;28;20097;-78
2021/03/06 02:23:44;;;;;;;17.65;9.45;;;-1.00;94.50;;;;;;5083741;28;20470;-78
2021/03/06 02:26:37;;;;;;;20.60;8.70;;;-1.00;94.60;;;;;;5118461;27;20046;-78
2021/03/06 02:29:37;;;;;;;15.07;8.25;;;-0.90;94.70;;;;;;5106999;28;20042;-78
2021/03/06 02:32:17;;;;;;;15.32;8.95;;;-0.90;94.90;;;;;;5106142;28;20031;-78
2021/03/06 02:34:54;;;;;;;19.95;8.52;;;-0.80;94.70;;;;;;5110511;28;20040;-78
2021/03/06 02:37:24;;;;;;;18.05;8.15;;;-0.80;94.50;;;;;;5106759;28;20036;-78
2021/03/06 02:39:54;;;;;;;15.85;7.28;;;-0.70;94.90;;;;;;5109847;28;20464;-78
2021/03/06 02:42:23;;;;;;;14.93;8.05;;;-0.70;94.90;;;;;;5106078;28;20085;-78
2021/03/06 02:44:50;;;;;;;16.65;8.25;;;-0.60;94.70;;;;;;5106184;28;20048;-77
2021/03/06 02:47:18;;;;;;;16.15;7.82;;;-0.60;94.70;;;;;;5106287;28;20043;-77
2021/03/06 02:49:45;;;;;;;19.95;7.55;;;-0.50;94.70;;;;;;5106935;28;20139;-77
2021/03/06 02:52:11;;;;;;;13.20;7.70;;;-0.50;94.70;;;;;;5103167;28;20408;-77
2021/03/06 02:54:37;;;;;;;10.50;7.57;;;-0.50;94.70;;;;;;5106356;28;20051;-78
2021/03/06 02:57:03;;;;;;;12.07;6.05;;;-0.50;94.60;;;;;;5110778;28;20071;-78
2021/03/06 02:59:55;;;;;;;14.20;7.22;;;-0.40;94.70;;;;;;5100454;28;20426;-78
2021/03/06 03:02:43;;;;;;;17.77;8.18;;;-0.40;94.70;;;;;;5105391;28;20051;-78
2021/03/06 03:05:31;;;;;;;21.95;8.07;;;-0.30;94.80;;;;;;5105544;28;20081;-78
2021/03/06 03:08:08;;;;;;;18.27;7.78;;;-0.40;94.90;;;;;;5105820;28;20071;-78
2021/03/06 03:10:39;;;;;;;13.13;8.13;;;-0.30;95.10;;;;;;5105004;28;20403;-78
2021/03/06 03:13:33;;;;;;;17.30;7.50;;;-0.30;95.00;;;;;;5092530;28;20051;-78
2021/03/06 03:16:15;;;;;;;21.77;8.18;;;-0.30;94.90;;;;;;5100663;28;20070;-78
2021/03/06 03:18:48;;;;;;;15.10;7.68;;;-0.20;95.10;;;;;;5103231;28;20082;-78
2021/03/06 03:21:18;;;;;;;16.17;7.47;;;-0.20;95.00;;;;;;5106321;28;20054;-78
2021/03/06 03:23:49;;;;;;;21.60;8.05;;;-0.10;95.00;;;;;;5102496;28;20121;-77
2021/03/06 03:26:17;;;;;;;16.92;6.47;;;-0.10;95.00;;;;;;5111801;27;20464;-78
2021/03/06 03:28:46;;;;;;;17.38;7.75;;;-0.10;94.90;;;;;;5095626;28;20087;-77
2021/03/06 03:31:13;;;;;;;14.10;7.72;;;-0.10;94.80;;;;;;5109015;28;20114;-77
2021/03/06 03:33:42;;;;;;;12.57;6.90;;;-0.10;95.00;;;;;;5101505;28;20036;-77
2021/03/06 03:36:08;;;;;;;16.25;7.15;;;0.00;94.90;;;;;;5102929;28;20039;-77
2021/03/06 03:38:35;;;;;;;16.35;6.88;;;0.00;94.80;;;;;;5107071;28;20093;-77
2021/03/06 03:41:03;;;;;;;16.40;6.72;;;0.00;95.10;;;;;;5101930;27;20483;-77
2021/03/06 03:43:30;;;;;;;15.95;7.15;;;0.00;95.10;;;;;;5105562;28;20043;-77
2021/03/06 03:45:56;;;;;;;15.38;7.65;;;0.00;95.10;;;;;;5099998;28;20107;-76
2021/03/06 03:48:23;;;;;;;13.15;6.50;;;0.10;95.20;;;;;;5102981;28;20050;-76
2021/03/06 03:50:49;;;;;;;15.50;6.30;;;0.10;95.00;;;;;;5092402;27;20083;-76
2021/03/06 03:53:16;;;;;;;17.95;7.18;;;0.10;95.00;;;;;;5111146;28;20036;-76
2021/03/06 03:55:42;;;;;;;14.40;6.57;;;0.20;94.90;;;;;;5099086;27;20043;-76
2021/03/06 03:58:10;;;;;;;11.65;6.07;;;0.20;95.20;;;;;;5103416;28;20040;-76
2021/03/06 04:00:36;;;;;;;16.83;7.68;;;0.20;95.00;;;;;;5101597;28;20039;-76
2021/03/06 04:03:07;;;;;;;19.55;6.65;;;0.20;95.20;;;;;;5110599;28;20075;-77
2021/03/06 04:05:33;;;;;;;11.73;6.20;;;0.30;95.10;;;;;;5108567;28;20471;-77
2021/03/06 04:07:59;;;;;;;12.48;6.15;;;0.30;95.10;;;;;;5110472;28;20065;-77
2021/03/06 04:10:27;;;;;;;13.43;6.18;;;0.30;95.10;;;;;;5104558;28;20121;-77
2021/03/06 04:12:55;;;;;;;12.75;5.68;;;0.30;95.20;;;;;;5109678;28;20035;-77
2021/03/06 04:15:22;;;;;;;9.40;4.47;;;0.30;95.10;;;;;;5109391;28;20089;-77
2021/03/06 04:17:49;;;;;;;14.57;6.38;;;0.40;95.10;;;;;;5109404;28;20108;-77
2021/03/06 04:20:18;;;;;;;12.57;5.88;;;0.30;95.00;;;;;;5110853;28;20043;-77
2021/03/06 04:22:43;;;;;;;16.95;5.15;;;0.40;95.00;;;;;;5107429;28;20052;-77
2021/03/06 04:25:10;;;;;;;15.98;5.15;;;0.40;95.10;;;;;;5107031;28;20034;-77
2021/03/06 04:27:37;;;;;;;15.63;5.50;;;0.50;95.10;;;;;;5104173;28;20059;-77
2021/03/06 04:30:05;;;;;;;12.95;5.60;;;0.50;95.00;;;;;;5110558;28;20039;-77
2021/03/06 04:32:32;;;;;;;15.40;6.40;;;0.50;95.00;;;;;;5102483;28;20039;-77
2021/03/06 04:34:58;;;;;;;10.80;4.85;;;0.50;95.00;;;;;;5110933;28;20047;-77
2021/03/06 04:37:23;;;;;;;16.90;5.88;;;0.50;95.10;;;;;;5106983;28;20051;-77
2021/03/06 04:39:49;;;;;;;10.35;5.43;;;0.50;95.10;;;;;;5109099;28;20051;-77
2021/03/06 04:42:15;;;;;;;12.93;6.82;;;0.50;95.20;;;;;;5105379;28;20044;-77
2021/03/06 04:44:41;;;;;;;14.48;6.43;;;0.50;95.10;;;;;;5109278;28;20443;-77
2021/03/06 04:47:06;;;;;;;14.35;5.60;;;0.50;95.10;;;;;;5106356;28;20040;-77
2021/03/06 04:49:33;;;;;;;9.50;4.95;;;0.60;95.30;;;;;;5110593;28;20534;-77
2021/03/06 04:51:59;;;;;;;10.30;4.80;;;0.60;95.10;;;;;;5107690;28;20071;-77
2021/03/06 04:54:25;;;;;;;12.80;4.97;;;0.60;95.10;;;;;;5112725;28;20044;-78
2021/03/06 04:56:51;;;;;;;12.80;5.10;;;0.60;95.00;;;;;;5111958;28;20051;-77
2021/03/06 04:59:17;;;;;;;13.02;4.90;;;0.60;95.00;;;;;;5106942;28;20352;-77
2021/03/06 05:01:44;;;;;;;12.25;4.55;;;0.70;95.10;;;;;;5113330;28;20062;-77
2021/03/06 05:04:10;;;;;;;11.50;4.70;;;0.70;95.00;;;;;;5112241;28;20036;-77
2021/03/06 05:06:36;;;;;;;14.07;5.13;;;0.70;95.00;;;;;;5113086;28;20067;-77
2021/03/06 05:09:03;;;;;;;12.27;4.82;;;0.80;95.00;;;;;;5108894;28;20082;-76
2021/03/06 05:11:29;;;;;;;13.00;4.68;;;0.80;94.90;;;;;;5108325;28;20042;-76
2021/03/06 05:13:55;;;;;;;10.55;4.60;;;0.80;95.00;;;;;;5111800;28;20498;-76
2021/03/06 05:16:21;;;;;;;10.02;4.47;;;0.80;94.90;;;;;;5113313;28;20114;-76
2021/03/06 05:18:47;;;;;;;9.82;4.35;;;0.80;95.20;;;;;;5111319;28;20088;-76
2021/03/06 05:21:12;;;;;;;11.07;4.60;;;0.90;95.00;;;;;;5113854;28;20044;-76
2021/03/06 05:23:38;;;;;;;13.73;5.45;;;0.90;95.00;;;;;;5111305;28;20039;-76
2021/03/06 05:26:04;;;;;;;11.95;4.53;;;0.90;95.00;;;;;;5103980;28;20036;-76
2021/03/06 05:28:30;;;;;;;7.82;3.85;;;0.90;95.00;;;;;;5109763;28;20036;-77
2021/03/06 05:30:56;;;;;;;11.77;3.70;;;1.00;94.80;;;;;;5113273;28;20572;-77
2021/03/06 05:33:22;;;;;;;12.50;4.60;;;0.90;94.90;;;;;;5112770;28;20046;-77
2021/03/06 05:35:48;;;;;;;8.68;4.05;;;1.00;95.10;;;;;;5111156;28;20039;-77
2021/03/06 05:38:15;;;;;;;15.02;3.80;;;0.90;95.10;;;;;;5114038;28;20038;-77
2021/03/06 05:40:47;;;;;;;10.13;3.78;;;1.00;95.00;;;;;;5106463;28;20647;-77
2021/03/06 05:43:14;;;;;;;13.20;4.22;;;1.00;95.00;;;;;;5110635;28;20117;-77
2021/03/06 05:45:47;;;;;;;7.55;3.95;;;1.00;94.90;;;;;;5103533;28;20031;-77
2021/03/06 05:48:13;;;;;;;7.47;4.22;;;1.00;94.90;;;;;;5106889;28;20040;-77
2021/03/06 05:50:40;;;;;;;18.13;4.80;;;1.00;94.90;;;;;;5106078;28;20638;-77
2021/03/06 05:53:10;;;;;;;10.60;3.70;;;1.00;94.80;;;;;;5112018;28;20031;-77
2021/03/06 05:55:37;;;;;;;10.65;3.83;;;1.00;94.90;;;;;;5108083;28;20040;-78
2021/03/06 05:58:04;;;;;;;8.65;3.60;;;1.00;94.90;;;;;;5111672;28;20160;-77
2021/03/06 06:00:31;;;;;;;9.13;3.97;;;1.00;94.90;;;;;;5108266;28;20054;-77
2021/03/06 06:02:57;;;;;;;10.20;3.85;;;1.00;94.90;;;;;;5113132;27;20048;-77
2021/03/06 06:05:24;;;;;;;9.95;3.85;;;1.10;95.00;;;;;;5102654;28;20115;-78
2021/03/06 06:07:54;;;;;;;9.55;3.65;;;1.10;94.90;;;;;;5111330;28;20110;-77
2021/03/06 06:10:20;;;;;;;8.27;3.47;;;1.10;94.80;;;;;;5106327;27;20664;-78
2021/03/06 06:12:46;;;;;;;9.90;3.38;;;1.10;94.80;;;;;;5110441;28;20112;-78
2021/03/06 06:15:13;;;;;;;8.65;3.88;;;1.10;94.80;;;;;;5108929;28;20059;-78
2021/03/06 06:17:39;;;;;;;7.25;3.83;;;1.10;94.70;;;;;;5110546;28;20032;-77
2021/03/06 06:20:05;;;;;;;10.07;3.92;;;1.10;94.80;;;;;;5105004;28;20040;-77
2021/03/06 06:22:31;;;;;;;13.52;4.10;;;1.10;94.80;;;;;;5107466;28;20521;-77
2021/03/06 06:24:57;;;;;;;12.73;4.00;;;1.10;94.80;;;;;;5111469;27;20122;-78
2021/03/06 06:27:32;;;;;;;10.57;3.80;;;1.10;94.80;;;;;;5106720;28;20387;-78
2021/03/06 06:29:59;;;;;;;9.43;4.07;;;1.20;94.70;;;;;;5111515;28;20052;-78
2021/03/06 06:32:44;;;;;;;10.75;4.07;;;1.20;94.70;;;;;;5109628;28;20145;-78
2021/03/06 06:35:12;;;;;;;9.50;3.17;;;1.20;94.90;;;;;;5105519;28;20057;-78
2021/03/06 06:37:39;;;;;;;8.20;3.60;;;1.20;94.70;;;;;;5102992;28;20070;-78
2021/03/06 06:40:28;;;;;;;7.88;2.88;;;1.30;94.70;;;;;;5102918;28;20035;-78
2021/03/06 06:42:56;;;;;;;10.25;3.13;;;1.30;94.70;;;;;;5097879;28;20048;-78
2021/03/06 06:45:22;;;;;;;7.65;2.90;;;1.30;94.80;;;;;;5108489;28;20109;-78
2021/03/06 06:47:50;;;;;;;10.27;3.17;;;1.40;94.70;;;;;;5106695;28;20035;-78
2021/03/06 06:50:32;;;;;;;8.25;2.85;;;1.40;94.70;;;;;;5111008;28;20044;-78
2021/03/06 06:52:59;;;;;;;6.20;2.50;;;1.50;94.70;;;;;;5104808;27;20047;-78
2021/03/06 06:55:40;;;;;;;9.68;2.58;;;1.50;94.70;;;;;;5103421;28;20040;-78
2021/03/06 06:58:06;;;;;;;7.07;2.22;;;1.50;94.80;;;;;;5094269;28;20524;-78
2021/03/06 07:00:34;;;;;;;6.90;2.13;;;1.70;94.80;;;;;;5091978;28;20028;-78
2021/03/06 07:03:02;;;;;;;8.55;2.20;;;1.70;94.70;;;;;;5091952;28;20403;-78
2021/03/06 07:05:39;;;;;;;6.80;2.10;;;1.80;94.50;;;;;;5101650;28;20479;-78
2021/03/06 07:08:06;;;;;;;7.15;2.03;;;1.80;94.40;;;;;;5096911;28;20055;-78
2021/03/06 07:10:40;;;;;;;6.50;2.42;;;1.90;94.30;;;;;;5102288;28;20046;-78
2021/03/06 07:13:10;;;;;;;5.70;1.70;;;2.00;94.20;;;;;;5097845;28;20043;-78
2021/03/06 07:15:38;;;;;;;4.75;1.80;;;2.00;94.10;;;;;;5094066;28;20047;-78
2021/03/06 07:18:07;;;;;;;7.65;2.53;;;2.10;94.10;;;;;;5104571;27;20443;-78
2021/03/06 07:20:40;;;;;;;5.75;1.92;;;2.20;94.00;;;;;;5098450;28;20105;-78
2021/03/06 07:23:24;;;;;;;6.47;1.88;;;2.30;94.00;;;;;;5096245;28;20044;-78
2021/03/06 07:25:56;;;;;;;5.57;1.75;;;2.30;93.90;;;;;;5097004;28;20035;-78
2021/03/06 07:28:24;;;;;;;4.97;1.90;;;2.40;93.90;;;;;;5103351;27;20038;-78
2021/03/06 07:30:50;;;;;;;5.47;1.55;;;2.40;93.90;;;;;;5094262;28;20040;-78
2021/03/06 07:33:18;;;;;;;5.55;1.70;;;2.50;93.90;;;;;;5096356;28;20431;-78
2021/03/06 07:35:46;;;;;;;6.68;1.40;;;2.60;93.80;;;;;;5098626;28;20139;-78
2021/03/06 07:38:15;;;;;;;6.85;1.90;;;2.60;93.70;;;;;;5108695;28;20028;-78
2021/03/06 07:40:46;;;;;;;8.85;1.67;;;2.70;93.70;;;;;;5108431;28;20043;-78
2021/03/06 07:43:21;;;;;;;7.35;1.92;;;2.80;93.70;;;;;;5109816;28;20105;-78
2021/03/06 07:45:50;;;;;;;8.98;2.30;;;2.90;93.80;;;;;;5105323;28;20050;-78
2021/03/06 07:48:19;;;;;;;11.30;2.53;;;3.00;93.60;;;;;;5111268;28;20039;-78
2021/03/06 07:50:50;;;;;;;8.52;2.10;;;3.10;93.40;;;;;;5108243;28;20046;-78
2021/03/06 07:53:18;;;;;;;7.43;2.15;;;3.10;93.10;;;;;;5111006;27;20120;-78
2021/03/06 07:55:45;;;;;;;11.43;2.80;;;3.10;93.00;;;;;;5101364;28;20505;-78
2021/03/06 07:58:12;;;;;;;8.25;2.65;;;3.10;93.00;;;;;;5110585;28;20043;-78
2021/03/06 08:00:49;;;;;;;12.05;2.33;;;3.20;93.00;;;;;;5103680;28;20044;-78
2021/03/06 08:03:26;;;;;;;7.38;2.60;;;3.20;93.00;;;;;;5104000;28;20121;-78
2021/03/06 08:05:57;;;;;;;4.85;1.98;;;3.30;93.10;;;;;;5106242;27;20104;-77
2021/03/06 08:08:35;;;;;;;11.30;2.25;;;3.30;92.90;;;;;;5112123;28;20069;-77
2021/03/06 08:11:08;;;;;;;8.60;2.45;;;3.30;92.70;;;;;;5108821;28;20043;-78
2021/03/06 08:13:39;;;;;;;8.55;2.17;;;3.40;92.60;;;;;;5111847;28;20379;-78
2021/03/06 08:16:21;;;;;;;7.43;1.80;;;3.50;92.70;;;;;;5100955;28;20471;-78
2021/03/06 08:18:59;;;;;;;9.70;1.73;;;3.50;92.60;;;;;;5111217;28;20032;-77
2021/03/06 08:21:35;;;;;;;7.68;2.20;;;3.60;92.60;;;;;;5107965;28;20455;-77
2021/03/06 08:26:40;;;;;;;7.95;1.52;;;3.70;92.50;;;;;;5109467;28;20382;-77
2021/03/06 08:29:24;;;;;;;7.43;1.98;;;3.70;92.50;;;;;;5105584;28;20401;-77
2021/03/06 08:32:05;;;;;;;10.07;2.28;;;3.80;92.40;;;;;;5107747;27;20077;-77
2021/03/06 08:34:36;;;;;;;8.70;2.00;;;3.90;92.50;;;;;;5115590;28;20040;-77
2021/03/06 08:37:19;;;;;;;5.68;1.90;;;3.90;92.40;;;;;;5112142;27;20047;-77
2021/03/06 08:39:51;;;;;;;10.15;1.88;;;4.00;92.40;;;;;;5115687;28;20040;-77
2021/03/06 08:42:23;;;;;;;6.75;2.20;;;4.10;92.10;;;;;;5104879;28;20032;-77
2021/03/06 08:44:50;;;;;;;5.72;1.83;;;4.10;92.30;;;;;;5113530;28;20106;-77
2021/03/06 08:47:27;;;;;;;8.20;2.47;;;4.10;92.00;;;;;;5110450;27;20490;-77
2021/03/06 08:49:56;;;;;;;6.40;2.28;;;4.10;91.80;;;;;;5115614;28;20058;-77
2021/03/06 08:52:23;;;;;;;5.97;1.80;;;4.20;91.70;;;;;;5108192;28;20110;-77
2021/03/06 08:54:49;;;;;;;6.88;1.70;;;4.10;91.70;;;;;;5115572;28;20048;-77
2021/03/06 08:57:30;;;;;;;9.00;1.58;;;4.30;92.00;;;;;;5110928;28;20055;-76
2021/03/06 08:59:58;;;;;;;4.07;1.42;;;4.50;91.90;;;;;;5107811;28;20044;-76
2021/03/06 09:02:32;;;;;;;5.45;1.25;;;4.70;91.90;;;;;;5110617;28;20051;-76
2021/03/06 09:05:09;;;;;;;4.70;1.30;;;4.80;91.50;;;;;;5115320;28;20040;-76
2021/03/06 09:07:38;;;;;;;6.05;1.40;;;4.90;91.30;;;;;;5112727;28;20071;-76
2021/03/06 09:10:22;;;;;;;6.03;1.13;;;5.00;90.90;;;;;;5115134;28;20116;-77
2021/03/06 09:12:50;;;;;;;3.35;1.00;;;5.00;90.10;;;;;;5112425;28;20532;-77
2021/03/06 09:15:30;;;;;;;6.20;0.95;;;4.90;89.10;;;;;;5115323;28;20035;-76
2021/03/06 09:17:57;;;;;;;4.18;0.90;;;4.90;89.50;;;;;;5110971;28;20091;-76
2021/03/06 09:20:25;;;;;;;3.90;0.98;;;4.80;90.00;;;;;;5114810;28;20051;-76
2021/03/06 09:22:52;;;;;;;4.38;0.60;;;4.80;90.30;;;;;;5111406;28;20424;-76
2021/03/06 09:25:48;;;;;;;5.57;0.75;;;4.80;90.30;;;;;;5113478;28;20048;-76
2021/03/06 09:28:13;;;;;;;6.10;0.85;;;5.10;91.90;;;;;;5099714;28;20068;-76
2021/03/06 09:30:41;;;;;;;3.83;0.88;;;5.20;91.30;;;;;;5113488;28;20043;-76
2021/03/06 09:33:27;;;;;;;2.33;0.50;;;5.30;90.50;;;;;;5103464;27;20399;-76
2021/03/06 09:36:02;;;;;;;2.13;0.50;;;5.30;90.20;;;;;;5114468;28;20422;-76
2021/03/06 09:38:28;;;;;;;6.32;0.90;;;5.20;90.40;;;;;;5111442;28;20096;-76
2021/03/06 09:40:54;;;;;;;3.72;0.85;;;5.10;90.50;;;;;;5114101;28;20039;-76
2021/03/06 09:43:32;;;;;;;3.53;0.82;;;5.10;90.40;;;;;;5112175;28;20089;-76
2021/03/06 09:46:00;;;;;;;4.03;0.90;;;5.10;90.80;;;;;;5113269;28;20068;-76
2021/03/06 09:48:27;;;;;;;7.03;1.40;;;5.10;91.00;;;;;;5110316;27;20093;-76
2021/03/06 09:51:02;;;;;;;5.70;0.93;;;5.10;90.90;;;;;;5111799;28;20067;-76
2021/03/06 09:53:29;;;;;;;3.38;0.73;;;5.10;91.00;;;;;;5111791;28;20039;-77
2021/03/06 09:56:05;;;;;;;3.92;1.10;;;5.10;91.00;;;;;;5112007;28;20035;-77
2021/03/06 09:58:31;;;;;;;5.20;1.33;;;5.20;91.60;;;;;;5111680;28;20439;-76
2021/03/06 10:01:15;;;;;;;3.38;1.00;;;5.30;91.90;;;;;;5101966;28;20055;-76
2021/03/06 10:03:42;;;;;;;4.35;1.42;;;5.40;91.40;;;;;;5111888;28;20047;-76
2021/03/06 10:06:10;;;;;;;6.82;1.55;;;5.40;91.50;;;;;;5102885;28;20059;-77
2021/03/06 10:08:56;;;;;;;4.38;1.45;;;5.40;91.50;;;;;;5108879;27;20051;-76
2021/03/06 10:11:30;;;;;;;5.28;1.40;;;5.50;91.20;;;;;;5109111;28;20532;-76
2021/03/06 10:13:58;;;;;;;5.28;1.70;;;5.50;90.90;;;;;;5112959;28;20082;-76
2021/03/06 10:16:24;;;;;;;6.10;1.52;;;5.50;91.10;;;;;;5106884;28;20043;-76
2021/03/06 10:18:49;;;;;;;6.07;1.48;;;5.70;91.50;;;;;;5111413;28;20047;-77
2021/03/06 10:21:22;;;;;;;4.13;1.20;;;5.90;91.20;;;;;;5108212;27;20436;-77
2021/03/06 10:23:49;;;;;;;3.58;1.08;;;6.00;90.70;;;;;;5112690;28;20445;-77
2021/03/06 10:26:26;;;;;;;3.72;1.10;;;6.20;90.30;;;;;;5109603;28;20052;-77
2021/03/06 10:29:17;;;;;;;3.10;0.88;;;6.40;89.80;;;;;;5111895;27;20159;-77
2021/03/06 10:31:43;;;;;;;4.35;1.05;;;6.50;89.30;;;;;;5102110;28;20079;-77
2021/03/06 10:34:28;;;;;;;5.88;1.35;;;6.50;89.00;;;;;;5112985;28;20139;-78
2021/03/06 10:37:11;;;;;;;5.20;1.42;;;6.70;88.50;;;;;;5108515;27;20411;-77
2021/03/06 10:40:00;;;;;;;4.18;1.40;;;6.80;87.40;;;;;;5112524;27;20138;-78
2021/03/06 10:42:50;;;;;;;4.20;1.10;;;6.80;84.90;;;;;;5104913;28;20056;-78
2021/03/06 10:45:27;;;;;;;4.47;1.27;;;6.80;85.20;;;;;;5111796;28;20066;-76
2021/03/06 10:47:55;;;;;;;4.97;1.15;;;6.90;85.50;;;;;;5112184;28;20119;-77
2021/03/06 10:50:38;;;;;;;3.45;1.05;;;6.90;84.40;;;;;;5112683;28;20480;-77
2021/03/06 10:53:31;;;;;;;4.22;1.95;;;6.80;83.20;;;;;;5104517;28;20040;-77
2021/03/06 10:55:57;;;;;;;3.67;1.02;;;6.70;83.00;;;;;;5108553;28;20127;-77
2021/03/06 10:58:44;;;;;;;2.88;0.82;;;6.70;83.50;;;;;;5112887;28;20073;-77
2021/03/06 11:01:12;;;;;;;6.25;1.33;;;6.80;84.20;;;;;;5099441;27;20069;-76
2021/03/06 11:03:42;;;;;;;7.90;1.50;;;7.00;84.40;;;;;;5108305;28;20811;-77
2021/03/06 11:06:09;;;;;;;3.78;1.27;;;7.20;84.60;;;;;;5102852;28;20410;-77
2021/03/06 11:08:35;;;;;;;6.72;1.45;;;7.40;83.40;;;;;;5109404;28;20100;-76
2021/03/06 11:11:02;;;;;;;4.85;1.35;;;7.50;83.30;;;;;;5111558;28;20039;-76
2021/03/06 11:13:42;;;;;;;5.47;1.70;;;7.60;82.50;;;;;;5108657;28;20047;-76
2021/03/06 11:16:09;;;;;;;4.35;1.00;;;7.60;80.70;;;;;;5107287;27;20426;-77
2021/03/06 11:18:37;;;;;;;4.22;1.13;;;7.60;81.80;;;;;;5108217;28;20497;-77
2021/03/06 11:21:04;;;;;;;5.80;1.77;;;7.40;81.20;;;;;;5111283;28;20027;-76
2021/03/06 11:23:30;;;;;;;6.32;1.60;;;7.40;81.70;;;;;;5108558;28;20079;-76
2021/03/06 11:25:56;;;;;;;4.50;1.50;;;7.30;81.30;;;;;;5109986;28;20478;-76
2021/03/06 11:28:22;;;;;;;2.95;0.90;;;7.20;81.30;;;;;;5105635;28;20052;-76
2021/03/06 11:30:48;;;;;;;0.77;0.20;;;7.10;82.20;;;;;;5109136;28;20502;-76
2021/03/06 11:33:17;;;;;;;1.65;0.30;;;6.70;82.00;;;;;;5106547;28;20036;-76
2021/03/06 11:35:44;;;;;;;2.35;0.28;;;6.50;82.60;;;;;;5111137;28;20032;-77
2021/03/06 11:38:11;;;;;;;1.15;0.40;;;6.20;83.70;;;;;;5107220;27;20054;-77
2021/03/06 11:40:43;;;;;;;4.75;0.60;;;6.10;84.90;;;;;;5111084;28;20055;-76
2021/03/06 11:43:10;;;;;;;3.90;0.60;;;5.90;85.30;;;;;;5099970;28;20043;-77
2021/03/06 11:45:36;;;;;;;2.45;0.40;;;5.80;86.50;;;;;;5101454;28;20036;-77
2021/03/06 11:48:02;;;;;;;3.38;0.52;;;5.70;87.40;;;;;;5107931;27;20101;-77
2021/03/06 11:50:31;;;;;;;3.25;0.40;;;5.70;88.40;;;;;;5110608;28;20040;-77
2021/03/06 11:52:57;;;;;;;2.70;0.45;;;5.70;88.50;;;;;;5111269;28;20470;-77
2021/03/06 11:55:24;;;;;;;2.58;0.68;;;5.70;88.90;;;;;;5102345;28;20052;-76
2021/03/06 11:57:50;;;;;;;1.15;0.40;;;5.70;89.10;;;;;;5108531;28;20151;-76
2021/03/06 12:00:18;;;;;;;2.65;0.50;;;5.80;89.10;;;;;;5104876;27;20059;-76
2021/03/06 12:02:44;;;;;;;2.75;0.40;;;5.70;89.30;;;;;;5108666;28;20048;-76
2021/03/06 12:05:14;;;;;;;1.98;0.20;;;5.80;90.00;;;;;;5107277;28;20051;-77
2021/03/06 12:07:42;;;;;;;2.08;0.35;;;5.90;90.00;;;;;;5108309;28;20040;-77
2021/03/06 12:10:10;;;;;;;3.63;0.43;;;5.90;89.40;;;;;;5105072;28;20044;-77
2021/03/06 12:12:36;;;;;;;4.90;0.70;;;5.90;89.60;;;;;;5109094;28;20039;-77
2021/03/06 12:15:04;;;;;;;3.10;0.70;;;5.90;90.10;;;;;;5102214;28;20047;-77
2021/03/06 12:17:30;;;;;;;3.20;0.65;;;6.00;90.40;;;;;;5110066;28;20387;-77
2021/03/06 12:19:56;;;;;;;1.35;0.55;;;6.10;90.30;;;;;;5108255;28;20032;-77
2021/03/06 12:22:22;;;;;;;2.90;0.60;;;6.20;90.70;;;;;;5109449;28;20071;-77
2021/03/06 12:24:47;;;;;;;1.48;0.40;;;6.30;90.30;;;;;;5107347;28;20044;-77
2021/03/06 12:27:14;;;;;;;1.85;0.52;;;6.40;90.40;;;;;;5109865;28;20416;-77
2021/03/06 12:29:41;;;;;;;3.88;0.60;;;6.50;90.20;;;;;;5106279;28;20058;-78
2021/03/06 12:32:07;;;;;;;2.45;0.52;;;6.60;90.30;;;;;;5100978;28;20551;-77
2021/03/06 12:34:33;;;;;;;2.90;0.65;;;6.80;90.00;;;;;;5110807;28;20090;-77
2021/03/06 12:36:59;;;;;;;4.03;1.35;;;6.80;89.10;;;;;;5106718;28;20047;-77
2021/03/06 12:39:25;;;;;;;3.08;0.95;;;6.90;89.00;;;;;;5109474;28;20031;-77
2021/03/06 12:41:52;;;;;;;5.63;0.75;;;7.00;88.30;;;;;;5099515;28;20140;-77
2021/03/06 12:44:19;;;;;;;4.60;0.95;;;7.10;88.40;;;;;;5110753;28;20067;-77
2021/03/06 12:46:47;;;;;;;2.30;0.90;;;7.10;88.20;;;;;;5107334;28;20039;-77
2021/03/06 12:49:14;;;;;;;3.15;1.27;;;7.10;88.70;;;;;;5107711;28;20103;-77
2021/03/06 12:51:39;;;;;;;4.47;1.30;;;7.20;88.00;;;;;;5104319;28;20043;-77
2021/03/06 12:54:06;;;;;;;3.72;0.98;;;7.30;87.30;;;;;;5102517;28;20032;-77
2021/03/06 12:56:32;;;;;;;5.75;1.80;;;7.30;86.80;;;;;;5106578;28;20051;-77
2021/03/06 12:58:58;;;;;;;4.70;1.63;;;7.30;86.80;;;;;;5110227;28;20158;-76
2021/03/06 13:01:24;;;;;;;6.25;1.55;;;7.40;86.60;;;;;;5107226;28;20024;-76
2021/03/06 13:03:50;;;;;;;2.25;1.00;;;7.50;86.40;;;;;;5110433;28;20126;-77
2021/03/06 13:06:16;;;;;;;6.03;0.93;;;7.60;86.70;;;;;;5107852;28;20032;-77